createdAt,value
2022-08-07T00:00:05.185Z,0.05
2022-08-07T00:04:57.142Z,0.05
2022-08-07T00:10:31.611Z,0.04
2022-08-07T00:14:56.606Z,0.05
2022-08-07T00:20:08.766Z,0.05
2022-08-07T00:24:54.855Z,0.05
2022-08-07T00:30:02.979Z,0.05
2022-08-07T00:34:53.195Z,0.05
2022-08-07T00:39:57.929Z,0.04
2022-08-07T00:44:52.862Z,0.05
2022-08-07T00:50:53.913Z,0.05
2022-08-07T00:54:55.918Z,0.05
2022-08-07T00:59:16.998Z,0.04
2022-08-07T01:04:32.561Z,0.05
2022-08-07T01:10:13.582Z,0.05
2022-08-07T01:14:29.295Z,0.05
2022-08-07T01:19:22.781Z,0.05
2022-08-07T01:24:24.557Z,0.05
2022-08-07T01:29:18.032Z,0.05
2022-08-07T01:34:17.555Z,0.05
2022-08-07T01:39:16.512Z,0.05
2022-08-07T01:44:20.788Z,0.05
2022-08-07T01:49:23.002Z,0.05
2022-08-07T01:54:38.960Z,0.05
2022-08-07T01:58:52.430Z,0.05
2022-08-07T02:03:54.815Z,0.05
2022-08-07T02:08:57.228Z,0.05
2022-08-07T02:14:04.597Z,0.05
2022-08-07T02:18:53.500Z,0.05
2022-08-07T02:23:51.614Z,0.05
2022-08-07T02:28:51.307Z,0.05
2022-08-07T02:34:18.736Z,0.05
2022-08-07T02:38:59.751Z,0.05
2022-08-07T02:43:50.993Z,0.05
2022-08-07T02:48:58.035Z,0.05
2022-08-07T02:53:47.764Z,0.05
2022-08-07T02:58:49.876Z,0.05
2022-08-07T03:00:18.823Z,0.05
2022-08-07T03:05:09.407Z,0.05
2022-08-07T03:10:46.408Z,0.05
2022-08-07T03:15:09.342Z,0.05
2022-08-07T03:20:02.706Z,0.05
2022-08-07T03:25:03.468Z,0.05
2022-08-07T03:30:04.338Z,0.05
2022-08-07T03:35:44.125Z,0.05
2022-08-07T03:40:18.974Z,0.05
2022-08-07T03:45:31.559Z,0.06
2022-08-07T03:49:56.315Z,0.06
2022-08-07T03:55:08.630Z,0.08
2022-08-07T03:59:18.181Z,0.1
2022-08-07T04:04:20.202Z,0.14
2022-08-07T04:09:25.005Z,0.2
2022-08-07T04:14:50.003Z,0.26
2022-08-07T04:19:20.069Z,0.26
2022-08-07T04:24:42.119Z,0.34
2022-08-07T04:29:18.324Z,0.42
2022-08-07T04:34:40.130Z,0.52
2022-08-07T04:39:27.162Z,0.63
2022-08-07T04:44:21.483Z,0.75
2022-08-07T04:49:26.979Z,0.88
2022-08-07T04:54:16.960Z,1.01
2022-08-07T05:00:24.208Z,1.14
2022-08-07T05:04:18.839Z,1.28
2022-08-07T05:09:06.761Z,1.43
2022-08-07T05:15:05.954Z,1.59
2022-08-07T05:18:55.762Z,1.74
2022-08-07T05:23:52.907Z,1.9
2022-08-07T05:28:53.520Z,2.06
2022-08-07T05:34:12.525Z,2.22
2022-08-07T05:40:21.527Z,2.38
2022-08-07T05:44:15.016Z,2.54
2022-08-07T05:49:13.202Z,2.71
2022-08-07T05:55:06.893Z,2.88
2022-08-07T05:58:54.672Z,3.04
2022-08-07T06:04:03.210Z,3.21
2022-08-07T06:08:56.296Z,3.38
2022-08-07T06:14:31.153Z,3.54
2022-08-07T06:18:58.585Z,3.7
2022-08-07T06:25:03.073Z,3.87
2022-08-07T06:28:50.263Z,4.03
2022-08-07T06:33:51.854Z,4.19
2022-08-07T06:40:22.476Z,4.35
2022-08-07T06:44:11.808Z,4.5
2022-08-07T06:48:48.569Z,4.66
2022-08-07T06:56:03.009Z,4.82
2022-08-07T07:00:21.159Z,4.96
2022-08-07T07:04:33.139Z,5.11
2022-08-07T07:08:48.819Z,5.27
2022-08-07T07:14:04.168Z,5.42
2022-08-07T07:18:50.641Z,5.56
2022-08-07T07:24:14.566Z,5.71
2022-08-07T07:30:13.022Z,5.86
2022-08-07T07:33:39.007Z,12.99
2022-08-07T07:38:46.046Z,13.76
2022-08-07T07:44:27.525Z,14.29
2022-08-07T07:48:39.290Z,14.84
2022-08-07T07:53:52.911Z,15.37
2022-08-07T07:58:43.242Z,16.01
2022-08-07T08:00:02.883Z,16.16
2022-08-07T08:05:01.607Z,16.79
2022-08-07T08:10:09.159Z,17.46
2022-08-07T08:14:57.327Z,18.14
2022-08-07T08:20:33.206Z,18.71
2022-08-07T08:25:49.143Z,19.35
2022-08-07T08:30:02.961Z,19.97
2022-08-07T08:34:52.652Z,20.61
2022-08-07T08:40:01.307Z,21.18
2022-08-07T08:44:48.971Z,21.8
2022-08-07T08:50:07.529Z,22.37
2022-08-07T08:54:48.916Z,22.9
2022-08-07T08:59:19.030Z,23.4
2022-08-07T09:04:15.628Z,23.93
2022-08-07T09:09:37.316Z,24.26
2022-08-07T09:14:13.212Z,24.91
2022-08-07T09:19:57.156Z,25.37
2022-08-07T09:25:17.730Z,25.73
2022-08-07T09:30:10.824Z,26.25
2022-08-07T09:34:21.928Z,26.74
2022-08-07T09:40:00.278Z,26.95
2022-08-07T09:48:01.050Z,27.29
2022-08-07T09:50:21.258Z,27.36
2022-08-07T09:54:22.246Z,27.72
2022-08-07T09:58:55.460Z,28.21
2022-08-07T10:04:32.697Z,28.47
2022-08-07T10:08:54.791Z,29.19
2022-08-07T10:14:06.530Z,29.27
2022-08-07T10:18:56.892Z,29.49
2022-08-07T10:24:18.680Z,29.82
2022-08-07T10:28:54.375Z,29.96
2022-08-07T10:34:32.544Z,30.18
2022-08-07T10:38:54.096Z,30.26
2022-08-07T10:43:49.098Z,30.67
2022-08-07T10:48:50.568Z,30.62
2022-08-07T10:53:48.002Z,30.77
2022-08-07T10:59:00.208Z,31.17
2022-08-07T11:04:38.343Z,31.12
2022-08-07T11:08:46.237Z,31.2
2022-08-07T11:15:02.402Z,31.46
2022-08-07T11:18:44.160Z,31.5
2022-08-07T11:23:46.106Z,31.64
2022-08-07T11:28:55.556Z,31.52
2022-08-07T11:34:04.461Z,31.79
2022-08-07T11:39:00.551Z,31.81
2022-08-07T11:44:20.077Z,31.65
2022-08-07T11:48:39.953Z,31.35
2022-08-07T11:54:03.718Z,31.48
2022-08-07T11:58:41.423Z,31.47
2022-08-07T12:03:48.361Z,31.29
2022-08-07T12:08:43.090Z,31.27
2022-08-07T12:13:48.510Z,31.15
2022-08-07T12:18:34.961Z,30.83
2022-08-07T12:24:41.070Z,30.81
2022-08-07T12:28:33.875Z,30.51
2022-08-07T12:34:12.049Z,30.37
2022-08-07T12:38:58.497Z,30.22
2022-08-07T12:44:17.071Z,29.93
2022-08-07T12:48:58.121Z,29.56
2022-08-07T12:54:39.113Z,29.28
2022-08-07T12:58:37.641Z,28.84
2022-08-07T12:59:57.597Z,28.77
2022-08-07T13:06:02.130Z,28.4
2022-08-07T13:10:53.692Z,15.26
2022-08-07T13:14:57.421Z,21.91
2022-08-07T13:19:54.411Z,23.78
2022-08-07T13:25:00.215Z,15.17
2022-08-07T13:29:51.741Z,15.54
2022-08-07T13:34:53.043Z,24.17
2022-08-07T13:40:44.625Z,19.23
2022-08-07T13:46:21.986Z,19.54
2022-08-07T13:51:02.418Z,8.05
2022-08-07T13:54:55.560Z,9.35
2022-08-07T13:59:16.000Z,9.17
2022-08-07T14:04:38.122Z,8.73
2022-08-07T14:10:28.130Z,8.87
2022-08-07T14:14:18.515Z,22.31
2022-08-07T14:20:55.527Z,19.18
2022-08-07T14:24:36.233Z,21.31
2022-08-07T14:30:14.935Z,17.13
2022-08-07T14:34:31.461Z,8.43
2022-08-07T14:40:35.802Z,10.99
2022-08-07T14:44:18.820Z,8.75
2022-08-07T15:52:01.031Z,6.82
2022-08-07T15:58:41.413Z,5.11
2022-08-07T16:00:09.001Z,5.03
2022-08-07T16:05:03.298Z,5.08
2022-08-07T16:10:04.930Z,5.93
2022-08-07T16:15:02.411Z,4.78
2022-08-07T16:20:05.367Z,4.44
2022-08-07T16:24:59.843Z,4.3
2022-08-07T16:30:34.441Z,4.15
2022-08-07T16:34:57.497Z,4
2022-08-07T16:39:56.406Z,3.85
2022-08-07T16:47:12.395Z,3.86
2022-08-07T16:52:02.157Z,3.62
2022-08-07T17:54:56.706Z,1.43
2022-08-07T17:59:00.674Z,1.28
2022-08-07T18:04:18.208Z,1.14
2022-08-07T18:09:16.665Z,1
2022-08-07T18:14:04.545Z,0.86
2022-08-07T18:22:11.399Z,0.74
2022-08-07T18:24:02.669Z,0.62
2022-08-07T18:29:01.901Z,0.51
2022-08-07T18:33:58.953Z,0.42
2022-08-07T18:40:50.325Z,0.33
2022-08-07T18:43:58.834Z,0.3
2022-08-07T18:50:48.007Z,0.26
2022-08-07T18:53:57.476Z,0.19
2022-08-07T19:03:55.289Z,0.1
2022-08-07T19:08:52.672Z,0.08
2022-08-07T19:13:50.968Z,0.07
2022-08-07T19:18:48.049Z,0.06
2022-08-07T19:24:02.472Z,0.06
2022-08-07T19:32:30.751Z,0.05
2022-08-07T19:33:59.576Z,0.05
2022-08-07T19:38:56.202Z,0.05
2022-08-07T19:43:59.955Z,0.05
2022-08-07T19:48:55.527Z,0.05
2022-08-07T19:54:58.184Z,0.05
2022-08-07T19:58:36.769Z,0.05
2022-08-07T20:03:42.782Z,0.05
2022-08-07T20:08:35.537Z,0.05
2022-08-07T20:13:35.549Z,0.05
2022-08-07T20:18:40.721Z,0.05
2022-08-07T20:24:00.246Z,0.05
2022-08-07T20:28:33.176Z,0.05
2022-08-07T20:33:41.333Z,0.05
2022-08-07T20:38:30.570Z,0.05
2022-08-07T20:43:30.819Z,0.05
2022-08-07T20:48:36.187Z,0.05
2022-08-07T20:54:31.936Z,0.05
2022-08-07T20:58:35.345Z,0.05
2022-08-07T21:00:12.003Z,0.05
2022-08-07T21:04:48.474Z,0.05
2022-08-07T21:10:05.107Z,0.05
2022-08-07T21:14:56.261Z,0.05
2022-08-07T21:20:10.451Z,0.05
2022-08-07T21:24:50.806Z,0.05
2022-08-07T21:29:56.823Z,0.05
2022-08-07T21:34:50.842Z,0.05
2022-08-07T21:39:57.347Z,0.04
2022-08-07T21:44:53.469Z,0.05
2022-08-07T21:50:06.228Z,0.05
2022-08-07T21:54:50.706Z,0.05
2022-08-07T21:59:19.111Z,0.05
2022-08-07T22:04:21.527Z,0.05
2022-08-07T22:09:14.612Z,0.05
2022-08-07T22:14:37.371Z,0.05
2022-08-07T22:19:13.592Z,0.05
2022-08-07T22:24:12.758Z,0.05
2022-08-07T22:29:16.298Z,0.04
2022-08-07T22:34:17.641Z,0.05
2022-08-07T22:39:23.833Z,0.05
2022-08-07T22:44:21.812Z,0.05
2022-08-07T22:49:19.286Z,0.05
2022-08-07T22:54:19.080Z,0.05
2022-08-07T22:58:54.015Z,0.05
2022-08-07T23:04:03.921Z,0.05
2022-08-07T23:10:41.433Z,0.05
2022-08-07T23:14:18.220Z,0.05
2022-08-07T23:18:50.746Z,0.05
2022-08-07T23:24:18.083Z,0.05
2022-08-07T23:28:57.819Z,0.05
2022-08-07T23:34:41.494Z,0.05
2022-08-07T23:38:56.760Z,0.05
2022-08-07T23:43:54.407Z,0.05
2022-08-07T23:48:49.436Z,0.05
2022-08-07T23:53:54.982Z,0.05
2022-08-07T23:58:49.578Z,0.05
